Time;durP1;ratioP1;P1;durP2;ratioP2;P2;SDS_P1;SDS_P2;PMS_P1;PMS_P2;Temp;Humidity;BMP_temperature;BMP_pressure;BME280_temperature;BME280_humidity;BME280_pressure;Samples;Min_cycle;Max_cycle;Signal;HPM_P1;HPM_P2
2021/09/29 00:02:02;;;;;;;;;;;13.90;99.90;;;;;;5025377;28;20288;-88
2021/09/29 00:04:31;;;;;;;;;;;13.80;99.90;;;;;;5024798;28;20032;-88
2021/09/29 00:07:02;;;;;;;;;;;13.80;99.90;;;;;;5025956;28;19929;-88
2021/09/29 00:09:31;;;;;;;;;;;13.80;99.90;;;;;;5028358;28;19984;-89
2021/09/29 00:12:02;;;;;;;;;;;13.90;99.90;;;;;;5019591;28;20460;-88
2021/09/29 00:14:31;;;;;;;;;;;13.80;99.90;;;;;;5030210;28;19940;-88
2021/09/29 00:16:58;;;;;;;;;;;13.80;99.90;;;;;;5028365;28;20510;-86
2021/09/29 00:19:30;;;;;;;;;;;13.80;99.90;;;;;;5034083;28;20356;-85
2021/09/29 00:22:08;;;;;;;;;;;13.90;99.90;;;;;;5027449;28;20020;-86
2021/09/29 00:24:38;;;;;;;;;;;13.80;99.90;;;;;;5028663;28;19932;-87
2021/09/29 00:27:08;;;;;;;;;;;13.80;99.90;;;;;;5030128;28;19976;-88
2021/09/29 00:29:49;;;;;;;;;;;13.90;99.90;;;;;;5039901;28;19996;-90
2021/09/29 00:32:28;;;;;;;;;;;13.90;99.90;;;;;;5041213;28;19933;-87
2021/09/29 00:34:58;;;;;;;;;;;13.90;99.90;;;;;;5055028;28;19924;-89
2021/09/29 00:37:24;;;;;;;;;;;13.90;99.90;;;;;;5034690;28;19926;-90
2021/09/29 00:39:56;;;;;;;;;;;14.00;99.90;;;;;;5030720;28;19931;-89
2021/09/29 00:42:24;;;;;;;;;;;14.00;99.90;;;;;;5041902;28;19939;-89
2021/09/29 00:44:53;;;;;;;;;;;14.00;99.90;;;;;;5028930;28;19925;-88
2021/09/29 00:47:27;;;;;;;;;;;14.10;99.90;;;;;;5033923;28;19925;-88
2021/09/29 00:49:54;;;;;;;;;;;14.10;99.90;;;;;;5024257;28;19925;-88
2021/09/29 00:52:26;;;;;;;;;;;14.10;99.90;;;;;;5022218;28;20016;-88
2021/09/29 00:54:59;;;;;;;;;;;14.10;99.90;;;;;;5025215;28;19928;-88
2021/09/29 00:57:34;;;;;;;;;;;14.20;99.90;;;;;;5029169;28;20016;-89
2021/09/29 01:00:04;;;;;;;;;;;14.20;99.90;;;;;;5023345;28;19925;-88
2021/09/29 01:02:36;;;;;;;;;;;14.10;99.90;;;;;;5034140;28;19947;-89
2021/09/29 01:05:12;;;;;;;;;;;14.10;99.90;;;;;;5031051;28;19956;-89
2021/09/29 01:07:44;;;;;;;;;;;14.10;99.90;;;;;;5051246;28;19936;-88
2021/09/29 01:10:17;;;;;;;;;;;14.00;99.90;;;;;;5049959;28;19984;-86
2021/09/29 01:13:02;;;;;;;;;;;14.00;99.90;;;;;;5057452;28;19946;-82
2021/09/29 01:15:43;;;;;;;;;;;;;;;;;;;;;
2021/09/29 01:18:14;;;;;;;;;;;14.00;99.90;;;;;;5031614;28;19937;-87
2021/09/29 01:20:44;;;;;;;;;;;13.90;99.90;;;;;;5023735;28;19970;-88
2021/09/29 01:23:29;;;;;;;;;;;13.90;99.90;;;;;;5037300;28;19925;-88
2021/09/29 01:26:19;;;;;;;;;;;13.90;99.90;;;;;;5023021;28;19926;-87
2021/09/29 01:28:52;;;;;;;;;;;13.90;99.90;;;;;;5027463;28;19929;-87
2021/09/29 01:31:28;;;;;;;;;;;13.90;99.90;;;;;;5020314;28;19931;-87
2021/09/29 01:33:57;;;;;;;;;;;14.00;99.90;;;;;;5029179;28;19925;-86
2021/09/29 01:36:26;;;;;;;;;;;14.00;99.90;;;;;;5028843;28;20430;-86
2021/09/29 01:39:00;;;;;;;;;;;14.00;99.90;;;;;;5033667;28;19924;-84
2021/09/29 01:41:30;;;;;;;;;;;14.00;99.90;;;;;;5034269;28;20023;-89
2021/09/29 01:44:07;;;;;;;;;;;13.90;99.90;;;;;;5030230;28;20443;-89
2021/09/29 01:46:58;;;;;;;;;;;13.90;99.90;;;;;;5024636;28;19933;-88
2021/09/29 01:49:28;;;;;;;;;;;13.90;99.90;;;;;;4997765;28;19934;-87
2021/09/29 01:52:06;;;;;;;;;;;13.90;99.90;;;;;;5025197;28;20023;-86
2021/09/29 01:54:45;;;;;;;;;;;13.90;99.90;;;;;;5028913;28;19925;-87
2021/09/29 01:57:16;;;;;;;;;;;13.90;99.90;;;;;;5026149;28;20315;-87
2021/09/29 01:59:50;;;;;;;;;;;13.90;99.90;;;;;;5021955;28;19979;-86
2021/09/29 02:02:18;;;;;;;;;;;14.00;99.90;;;;;;5026957;28;20003;-86
2021/09/29 02:04:45;;;;;;;;;;;14.00;99.90;;;;;;5027688;28;19932;-89
2021/09/29 02:07:16;;;;;;;;;;;14.00;99.90;;;;;;5024350;28;19964;-91
2021/09/29 02:09:47;;;;;;;;;;;14.00;99.90;;;;;;5026869;28;19925;-90
2021/09/29 02:12:19;;;;;;;;;;;13.90;99.90;;;;;;5042572;28;19933;-88
2021/09/29 02:14:51;;;;;;;;;;;13.90;99.90;;;;;;5027397;28;19924;-89
2021/09/29 02:17:18;;;;;;;;;;;13.90;99.90;;;;;;5030645;28;20001;-86
2021/09/29 02:19:52;;;;;;;;;;;13.80;99.90;;;;;;5026056;28;19932;-89
2021/09/29 02:22:22;;;;;;;;;;;13.80;99.90;;;;;;5026497;28;19972;-88
2021/09/29 02:24:56;;;;;;;;;;;13.90;99.90;;;;;;5025730;28;20285;-88
2021/09/29 02:27:38;;;;;;;;;;;13.90;99.90;;;;;;5034982;28;19925;-88
2021/09/29 02:30:24;;;;;;;;;;;13.90;99.90;;;;;;5023137;28;19925;-89
2021/09/29 02:33:02;;;;;;;;;;;13.90;99.90;;;;;;5037602;28;19925;-89
2021/09/29 02:35:51;;;;;;;;;;;13.90;99.90;;;;;;5027856;28;19925;-89
2021/09/29 02:38:21;;;;;;;;;;;13.90;99.90;;;;;;5035371;28;19925;-89
2021/09/29 02:40:50;;;;;;;;;;;13.80;99.90;;;;;;5030239;28;19932;-87
2021/09/29 02:43:20;;;;;;;;;;;13.80;99.90;;;;;;5024587;28;19925;-88
2021/09/29 02:45:53;;;;;;;;;;;13.80;99.90;;;;;;5032623;28;19929;-87
2021/09/29 02:48:34;;;;;;;;;;;13.70;99.90;;;;;;5032646;28;19925;-88
2021/09/29 02:51:01;;;;;;;;;;;13.60;99.90;;;;;;5036054;28;20645;-87
2021/09/29 02:53:33;;;;;;;;;;;13.60;99.90;;;;;;5027957;28;19925;-87
2021/09/29 02:56:07;;;;;;;;;;;13.60;99.90;;;;;;5030675;28;19935;-87
2021/09/29 02:58:34;;;;;;;;;;;13.60;99.90;;;;;;5032482;28;19971;-88
2021/09/29 03:01:06;;;;;;;;;;;13.50;99.90;;;;;;5032557;28;19929;-88
2021/09/29 03:03:39;;;;;;;;;;;13.50;99.90;;;;;;5028411;28;19924;-88
2021/09/29 03:06:06;;;;;;;;;;;13.50;99.90;;;;;;5026641;28;19926;-87
2021/09/29 03:08:42;;;;;;;;;;;13.50;99.90;;;;;;5035422;28;19968;-87
2021/09/29 03:11:12;;;;;;;;;;;13.50;99.90;;;;;;5025307;28;19933;-88
2021/09/29 03:13:41;;;;;;;;;;;13.50;99.90;;;;;;5031042;28;19987;-87
2021/09/29 03:16:09;;;;;;;;;;;13.50;99.90;;;;;;5031123;28;20055;-87
2021/09/29 03:18:40;;;;;;;;;;;13.50;99.90;;;;;;5025817;28;19969;-85
2021/09/29 03:21:14;;;;;;;;;;;13.50;99.90;;;;;;5023926;28;19931;-87
2021/09/29 03:23:52;;;;;;;;;;;13.50;99.90;;;;;;5039449;28;19968;-88
2021/09/29 03:26:24;;;;;;;;;;;13.50;99.90;;;;;;5039088;28;19925;-87
2021/09/29 03:28:56;;;;;;;;;;;13.40;99.90;;;;;;5032191;28;19933;-88
2021/09/29 03:31:29;;;;;;;;;;;13.50;99.90;;;;;;5026631;28;19925;-88
2021/09/29 03:33:58;;;;;;;;;;;13.50;99.90;;;;;;5027148;28;19932;-84
2021/09/29 03:36:34;;;;;;;;;;;13.50;99.90;;;;;;5027271;28;19924;-87
2021/09/29 03:39:03;;;;;;;;;;;13.40;99.90;;;;;;5026936;28;19925;-88
2021/09/29 03:41:43;;;;;;;;;;;13.30;99.90;;;;;;5034167;28;20029;-87
2021/09/29 03:47:20;;;;;;;;;;;13.20;99.90;;;;;;5026107;28;19925;-87
2021/09/29 03:49:59;;;;;;;;;;;13.20;99.90;;;;;;5026945;28;20023;-88
2021/09/29 03:52:44;;;;;;;;;;;13.10;99.90;;;;;;5027799;28;19933;-89
2021/09/29 03:55:18;;;;;;;;;;;13.10;99.90;;;;;;5042156;28;19925;-89
2021/09/29 03:57:45;;;;;;;;;;;13.10;99.90;;;;;;5031438;28;20336;-87
2021/09/29 04:00:26;;;;;;;;;;;13.00;99.90;;;;;;5024936;28;19929;-86
2021/09/29 04:02:58;;;;;;;;;;;13.00;99.90;;;;;;5030349;28;19926;-88
2021/09/29 04:05:27;;;;;;;;;;;13.00;99.90;;;;;;5030720;28;19925;-89
2021/09/29 04:07:59;;;;;;;;;;;13.00;99.90;;;;;;5035799;28;19925;-89
2021/09/29 04:10:29;;;;;;;;;;;13.00;99.90;;;;;;5034528;28;19925;-88
2021/09/29 04:12:56;;;;;;;;;;;12.90;99.90;;;;;;5023940;28;19964;-86
2021/09/29 04:15:23;;;;;;;;;;;13.00;99.90;;;;;;5018234;28;20444;-86
2021/09/29 04:17:50;;;;;;;;;;;13.00;99.90;;;;;;5032685;28;19984;-89
2021/09/29 04:20:17;;;;;;;;;;;12.90;99.90;;;;;;5030881;28;20383;-86
2021/09/29 04:22:45;;;;;;;;;;;12.90;99.90;;;;;;5024963;28;19937;-84
2021/09/29 04:25:14;;;;;;;;;;;12.90;99.90;;;;;;5028680;28;19960;-87
2021/09/29 04:27:47;;;;;;;;;;;12.90;99.90;;;;;;5024121;28;19929;-87
2021/09/29 04:30:22;;;;;;;;;;;12.80;99.90;;;;;;5029618;28;19948;-85
2021/09/29 04:32:49;;;;;;;;;;;12.80;99.90;;;;;;5020642;28;19933;-86
2021/09/29 04:35:22;;;;;;;;;;;12.80;99.90;;;;;;5035775;28;19925;-85
2021/09/29 04:37:56;;;;;;;;;;;12.80;99.90;;;;;;5038038;28;19925;-85
2021/09/29 04:40:26;;;;;;;;;;;12.80;99.90;;;;;;5024108;28;20409;-85
2021/09/29 04:42:58;;;;;;;;;;;12.70;99.90;;;;;;5019712;28;19930;-82
2021/09/29 04:45:46;;;;;;;;;;;12.70;99.90;;;;;;5024623;28;19983;-84
2021/09/29 04:48:18;;;;;;;;;;;12.70;99.90;;;;;;5005155;28;19925;-85
2021/09/29 04:50:45;;;;;;;;;;;12.60;99.90;;;;;;5026592;28;20028;-85
2021/09/29 04:53:13;;;;;;;;;;;12.60;99.90;;;;;;5029125;28;19925;-86
2021/09/29 04:55:43;;;;;;;;;;;12.60;99.90;;;;;;5029699;28;19971;-83
2021/09/29 04:58:13;;;;;;;;;;;12.60;99.90;;;;;;5029337;28;19947;-84
2021/09/29 05:00:42;;;;;;;;;;;12.60;99.90;;;;;;5029697;28;20380;-84
2021/09/29 05:03:09;;;;;;;;;;;12.60;99.90;;;;;;5029571;28;20303;-84
2021/09/29 05:05:38;;;;;;;;;;;12.60;99.90;;;;;;5032325;28;20376;-83
2021/09/29 05:08:06;;;;;;;;;;;12.60;99.90;;;;;;5026040;28;19960;-84
2021/09/29 05:10:46;;;;;;;;;;;12.60;99.90;;;;;;5032641;28;19925;-83
2021/09/29 05:13:13;;;;;;;;;;;12.60;99.90;;;;;;5028394;28;19937;-81
2021/09/29 05:15:43;;;;;;;;;;;12.60;99.90;;;;;;5030079;28;19925;-85
2021/09/29 05:18:10;;;;;;;;;;;12.50;99.90;;;;;;5024870;28;19925;-84
2021/09/29 05:20:42;;;;;;;;;;;12.50;99.90;;;;;;5028552;28;20453;-82
2021/09/29 05:23:18;;;;;;;;;;;12.50;99.90;;;;;;5024294;28;19937;-83
2021/09/29 05:25:52;;;;;;;;;;;12.60;99.90;;;;;;5028475;28;20312;-83
2021/09/29 05:28:20;;;;;;;;;;;12.50;99.90;;;;;;5024000;28;19974;-83
2021/09/29 05:30:48;;;;;;;;;;;12.50;99.90;;;;;;5018417;28;19925;-85
2021/09/29 05:33:26;;;;;;;;;;;12.40;99.90;;;;;;5028435;28;19933;-86
2021/09/29 05:36:13;;;;;;;;;;;12.50;99.90;;;;;;5025982;28;19925;-84
2021/09/29 05:38:47;;;;;;;;;;;12.50;99.90;;;;;;5028568;28;20345;-85
2021/09/29 05:41:25;;;;;;;;;;;12.40;99.90;;;;;;5021348;28;19948;-86
2021/09/29 05:43:51;;;;;;;;;;;12.50;99.90;;;;;;5027431;28;19936;-86
2021/09/29 05:49:17;;;;;;;;;;;12.40;99.90;;;;;;5019092;28;19925;-85
2021/09/29 05:51:49;;;;;;;;;;;12.40;99.90;;;;;;5030542;28;19975;-84
2021/09/29 05:54:25;;;;;;;;;;;12.40;99.90;;;;;;5024213;28;19933;-84
2021/09/29 05:56:56;;;;;;;;;;;12.30;99.90;;;;;;5026755;28;19925;-85
2021/09/29 05:59:23;;;;;;;;;;;12.30;99.90;;;;;;5027599;28;19948;-84
2021/09/29 06:01:53;;;;;;;;;;;12.30;99.90;;;;;;5033650;28;19932;-84
2021/09/29 06:04:22;;;;;;;;;;;12.30;99.90;;;;;;5030400;28;19932;-84
2021/09/29 06:06:49;;;;;;;;;;;12.30;99.90;;;;;;5029517;28;19960;-84
2021/09/29 06:09:17;;;;;;;;;;;12.30;99.90;;;;;;5034416;28;19925;-85
2021/09/29 06:11:46;;;;;;;;;;;12.30;99.90;;;;;;5027524;28;19925;-80
2021/09/29 06:14:17;;;;;;;;;;;12.30;99.90;;;;;;5021834;28;19975;-84
2021/09/29 06:17:11;;;;;;;;;;;12.30;99.90;;;;;;5042077;28;19978;-82
2021/09/29 06:19:39;;;;;;;;;;;12.30;99.90;;;;;;5018443;28;21257;-81
2021/09/29 06:22:12;;;;;;;;;;;12.20;99.90;;;;;;5016945;28;20472;-85
2021/09/29 06:24:39;;;;;;;;;;;12.30;99.90;;;;;;5030777;28;19929;-85
2021/09/29 06:27:20;;;;;;;;;;;12.30;99.90;;;;;;5023291;28;19975;-85
2021/09/29 06:32:37;;;;;;;;;;;12.20;99.90;;;;;;5030386;28;19997;-84
2021/09/29 06:35:11;;;;;;;;;;;12.20;99.90;;;;;;5027783;28;19926;-88
2021/09/29 06:37:46;;;;;;;;;;;12.20;99.90;;;;;;5026245;28;19969;-85
2021/09/29 06:40:25;;;;;;;;;;;12.10;99.90;;;;;;5031261;28;19933;-84
2021/09/29 06:43:03;;;;;;;;;;;12.10;99.90;;;;;;5031942;28;20289;-86
2021/09/29 06:45:35;;;;;;;;;;;12.10;99.90;;;;;;5029301;28;19979;-85
2021/09/29 06:48:08;;;;;;;;;;;12.10;99.90;;;;;;5034635;28;19935;-83
2021/09/29 06:50:37;;;;;;;;;;;12.10;99.90;;;;;;5038502;28;19933;-85
2021/09/29 06:55:51;;;;;;;;;;;12.10;99.90;;;;;;5030015;28;19941;-86
2021/09/29 06:58:37;;;;;;;;;;;12.20;99.90;;;;;;5032040;28;19924;-88
2021/09/29 07:03:55;;;;;;;;;;;12.20;99.90;;;;;;5024072;28;19925;-84
2021/09/29 07:06:22;;;;;;;;;;;12.10;99.90;;;;;;5025456;28;19935;-85
2021/09/29 07:08:51;;;;;;;;;;;12.10;99.90;;;;;;5020718;28;20015;-84
2021/09/29 07:11:18;;;;;;;;;;;12.10;99.90;;;;;;5030154;28;19929;-82
2021/09/29 07:13:49;;;;;;;;;;;12.00;99.90;;;;;;5032607;28;20311;-83
2021/09/29 07:16:28;;;;;;;;;;;12.00;99.90;;;;;;5024653;28;20466;-83
2021/09/29 07:19:04;;;;;;;;;;;12.00;99.90;;;;;;5031110;28;19932;-86
2021/09/29 07:21:31;;;;;;;;;;;12.00;99.90;;;;;;5023476;28;19990;-85
2021/09/29 07:23:58;;;;;;;;;;;11.90;99.90;;;;;;5023054;28;19925;-89
2021/09/29 07:26:39;;;;;;;;;;;12.10;99.90;;;;;;5034492;28;19932;-86
2021/09/29 07:31:51;;;;;;;;;;;12.40;99.90;;;;;;5029720;28;19929;-84
2021/09/29 07:37:08;;;;;;;;;;;12.50;99.90;;;;;;5019791;28;19979;-85
2021/09/29 07:39:49;;;;;;;;;;;12.50;99.90;;;;;;5025987;28;19924;-86
2021/09/29 07:42:18;;;;;;;;;;;12.40;99.90;;;;;;5031301;28;19925;-84
2021/09/29 07:44:54;;;;;;;;;;;12.30;99.90;;;;;;5029157;28;19924;-83
2021/09/29 07:47:26;;;;;;;;;;;12.30;99.90;;;;;;5023889;28;20013;-87
2021/09/29 07:49:53;;;;;;;;;;;12.30;99.90;;;;;;5023903;28;19931;-84
2021/09/29 07:52:28;;;;;;;;;;;12.40;99.90;;;;;;5028370;28;19932;-85
2021/09/29 07:55:09;;;;;;;;;;;12.40;99.90;;;;;;5030598;28;19925;-86
2021/09/29 07:57:40;;;;;;;;;;;12.50;99.90;;;;;;5027273;28;20606;-83
2021/09/29 08:00:11;;;;;;;;;;;12.60;99.90;;;;;;5030322;28;19972;-84
2021/09/29 08:02:53;;;;;;;;;;;12.50;99.90;;;;;;5030214;28;20004;-85
2021/09/29 08:05:31;;;;;;;;;;;12.50;99.90;;;;;;5025785;28;19925;-86
2021/09/29 08:08:09;;;;;;;;;;;12.50;99.90;;;;;;5034525;28;19933;-80
2021/09/29 08:10:36;;;;;;;;;;;12.50;99.90;;;;;;5023679;28;19925;-74
2021/09/29 08:13:12;;;;;;;;;;;12.50;99.90;;;;;;5027456;28;19932;-74
2021/09/29 08:15:49;;;;;;;;;;;12.60;99.90;;;;;;5033333;28;19929;-87
2021/09/29 08:18:27;;;;;;;;;;;12.60;99.90;;;;;;5026781;28;19925;-82
2021/09/29 08:20:57;;;;;;;;;;;12.60;99.90;;;;;;5024866;28;19956;-83
2021/09/29 08:23:43;;;;;;;;;;;12.70;99.90;;;;;;5032697;28;20072;-83
2021/09/29 08:26:34;;;;;;;;;;;12.70;99.90;;;;;;5026727;28;19932;-87
2021/09/29 08:31:50;;;;;;;;;;;12.80;99.90;;;;;;5022371;28;19925;-82
2021/09/29 08:34:34;;;;;;;;;;;12.90;99.90;;;;;;5016768;28;20404;-79
2021/09/29 08:37:17;;;;;;;;;;;12.90;99.90;;;;;;5017251;28;19925;-78
2021/09/29 08:39:50;;;;;;;;;;;12.80;99.90;;;;;;5019748;28;20519;-82
2021/09/29 08:42:25;;;;;;;;;;;12.90;99.90;;;;;;5028267;28;20020;-83
2021/09/29 08:44:59;;;;;;;;;;;12.90;99.90;;;;;;5017971;28;20561;-81
2021/09/29 08:47:36;;;;;;;;;;;12.80;99.90;;;;;;5020275;28;20041;-83
2021/09/29 08:50:18;;;;;;;;;;;12.80;99.90;;;;;;5019714;28;19972;-83
2021/09/29 08:53:04;;;;;;;;;;;12.80;99.90;;;;;;5017217;28;19964;-84
2021/09/29 08:55:45;;;;;;;;;;;12.90;99.90;;;;;;5017144;28;19932;-84
2021/09/29 09:15:37;;;;;;;;;;;15.70;99.90;;;;;;5022456;28;19931;-78
2021/09/29 09:20:51;;;;;;;;;;;15.00;99.90;;;;;;5016895;28;19925;-85
2021/09/29 09:23:18;;;;;;;;;;;15.00;99.90;;;;;;5022926;28;20420;-85
2021/09/29 09:25:49;;;;;;;;;;;15.00;99.90;;;;;;5027494;28;19925;-85
2021/09/29 09:28:28;;;;;;;;;;;15.00;99.90;;;;;;5023114;28;19961;-83
2021/09/29 09:30:57;;;;;;;;;;;14.50;99.90;;;;;;5025162;28;20012;-83
2021/09/29 09:33:27;;;;;;;;;;;14.30;99.90;;;;;;5024360;28;19929;-85
2021/09/29 09:35:57;;;;;;;;;;;14.60;99.90;;;;;;5024466;28;19998;-83
2021/09/29 09:38:40;;;;;;;;;;;14.90;99.90;;;;;;5021811;28;19926;-85
2021/09/29 09:41:09;;;;;;;;;;;16.50;99.90;;;;;;5023703;28;20028;-86
2021/09/29 09:43:35;;;;;;;;;;;17.50;99.90;;;;;;5031058;28;20011;-81
2021/09/29 09:46:14;;;;;;;;;;;17.60;99.90;;;;;;5031282;28;20376;-87
2021/09/29 09:48:41;;;;;;;;;;;16.80;99.90;;;;;;5030024;28;20016;-84
2021/09/29 09:51:10;;;;;;;;;;;16.40;99.90;;;;;;5029030;28;19925;-86
2021/09/29 09:53:37;;;;;;;;;;;17.10;99.90;;;;;;5030403;28;20384;-86
2021/09/29 09:56:20;;;;;;;;;;;17.60;99.90;;;;;;5028311;28;20005;-85
2021/09/29 09:58:50;;;;;;;;;;;16.90;99.90;;;;;;5028144;28;19925;-88
2021/09/29 10:01:17;;;;;;;;;;;15.80;99.90;;;;;;5027549;28;19976;-86
2021/09/29 10:03:46;;;;;;;;;;;15.40;99.90;;;;;;5027086;28;19987;-82
2021/09/29 10:06:16;;;;;;;;;;;15.60;99.90;;;;;;5021308;28;19931;-86
2021/09/29 10:08:46;;;;;;;;;;;15.50;99.90;;;;;;5024715;28;19925;-81
2021/09/29 10:11:18;;;;;;;;;;;15.50;99.90;;;;;;5028179;28;19951;-86
2021/09/29 10:27:51;;;;;;;;;;;15.30;99.90;;;;;;5026125;28;20002;-81
2021/09/29 10:30:30;;;;;;;;;;;14.50;99.90;;;;;;5038903;28;20548;-86
2021/09/29 10:33:14;;;;;;;;;;;14.00;99.90;;;;;;5039025;28;19967;-83
2021/09/29 10:35:58;;;;;;;;;;;13.70;99.90;;;;;;5030120;28;19925;-84
2021/09/29 10:44:06;;;;;;;;;;;13.20;99.90;;;;;;5029090;28;19937;-82
2021/09/29 10:46:43;;;;;;;;;;;13.10;99.90;;;;;;5029552;28;19947;-82
2021/09/29 11:30:45;;;;;;;;;;;15.10;99.90;;;;;;5034466;28;19956;-83
2021/09/29 11:33:24;;;;;;;;;;;15.20;99.90;;;;;;5029625;28;20291;-83
2021/09/29 11:36:04;;;;;;;;;;;15.60;99.90;;;;;;5036211;28;20383;-79
2021/09/29 12:09:09;;;;;;;;;;;17.00;97.60;;;;;;5038323;28;19940;-83
2021/09/29 12:14:20;;;;;;;;;;;17.10;92.30;;;;;;5032986;28;19933;-87
2021/09/29 12:16:49;;;;;;;;;;;16.60;92.40;;;;;;5036418;28;19967;-85
2021/09/29 12:19:23;;;;;;;;;;;16.30;91.90;;;;;;5026408;28;19955;-81
2021/09/29 12:21:52;;;;;;;;;;;16.20;92.50;;;;;;5035625;28;19925;-86
2021/09/29 12:24:31;;;;;;;;;;;16.10;92.20;;;;;;5021469;28;19932;-83
2021/09/29 12:27:02;;;;;;;;;;;16.10;92.30;;;;;;5030518;28;19929;-85
2021/09/29 12:29:48;;;;;;;;;;;16.00;92.00;;;;;;5022316;28;20013;-86
2021/09/29 12:32:26;;;;;;;;;;;15.80;92.40;;;;;;5027869;28;19929;-83
2021/09/29 12:35:07;;;;;;;;;;;15.70;92.50;;;;;;5020713;28;19935;-86
2021/09/29 12:37:34;;;;;;;;;;;15.50;91.30;;;;;;5036301;28;20372;-83
2021/09/29 12:40:02;;;;;;;;;;;15.30;92.10;;;;;;5025170;28;20015;-84
2021/09/29 12:42:30;;;;;;;;;;;15.50;91.90;;;;;;5027162;28;19933;-83
2021/09/29 12:44:57;;;;;;;;;;;15.60;91.70;;;;;;5027093;28;20207;-86
2021/09/29 12:47:27;;;;;;;;;;;15.60;91.70;;;;;;5033900;28;20319;-87
2021/09/29 12:49:56;;;;;;;;;;;15.80;92.60;;;;;;5027232;28;20312;-83
2021/09/29 12:52:27;;;;;;;;;;;15.70;93.30;;;;;;5033515;28;20219;-84
2021/09/29 12:55:06;;;;;;;;;;;15.20;94.10;;;;;;5025774;28;19933;-85
2021/09/29 12:57:34;;;;;;;;;;;15.10;95.70;;;;;;5028444;28;19929;-86
2021/09/29 13:00:02;;;;;;;;;;;14.70;96.30;;;;;;5030623;28;20004;-84
2021/09/29 13:02:41;;;;;;;;;;;14.40;98.80;;;;;;5027091;28;19933;-89
2021/09/29 13:05:08;;;;;;;;;;;14.40;99.70;;;;;;5028993;28;20284;-88
2021/09/29 13:07:35;;;;;;;;;;;14.50;99.90;;;;;;5028580;28;19961;-86
2021/09/29 13:10:02;;;;;;;;;;;14.60;99.90;;;;;;5030001;28;20363;-82
2021/09/29 13:12:30;;;;;;;;;;;14.80;98.70;;;;;;5030861;28;20299;-84
2021/09/29 13:15:01;;;;;;;;;;;15.10;97.50;;;;;;5028525;28;19925;-82
2021/09/29 13:17:30;;;;;;;;;;;15.30;95.70;;;;;;5027811;28;19971;-81
2021/09/29 13:20:00;;;;;;;;;;;15.30;95.60;;;;;;5027637;28;19925;-83
2021/09/29 13:22:27;;;;;;;;;;;15.50;95.80;;;;;;5022505;28;20380;-85
2021/09/29 13:35:08;;;;;;;;;;;15.80;94.50;;;;;;5023009;28;20292;-88
2021/09/29 13:38:54;;;;;;;;;;;14.30;95.60;;;;;;5036745;28;20542;-78
2021/09/29 13:41:21;;;;;;;;;;;14.00;95.40;;;;;;5026884;28;19925;-80
2021/09/29 13:43:48;;;;;;;;;;;14.00;94.80;;;;;;5029159;28;19953;-81
2021/09/29 13:46:16;;;;;;;;;;;14.10;93.80;;;;;;5029207;28;19933;-78
2021/09/29 13:48:51;;;;;;;;;;;14.60;93.40;;;;;;5032884;28;20012;-81
2021/09/29 13:51:18;;;;;;;;;;;14.90;92.80;;;;;;5029769;28;19925;-81
2021/09/29 13:53:45;;;;;;;;;;;15.10;93.00;;;;;;5028437;28;19933;-82
2021/09/29 13:56:16;;;;;;;;;;;15.20;93.10;;;;;;5019092;28;19963;-79
2021/09/29 14:01:48;;;;;;;;;;;14.90;94.20;;;;;;5033488;28;19944;-81
2021/09/29 14:29:14;;;;;;;;;;;14.30;97.20;;;;;;5026477;28;19976;-83
2021/09/29 14:31:48;;;;;;;;;;;14.60;97.60;;;;;;5036452;28;20295;-83
2021/09/29 14:34:17;;;;;;;;;;;14.90;96.30;;;;;;5033254;28;19933;-79
2021/09/29 14:36:44;;;;;;;;;;;15.10;95.70;;;;;;5033241;28;19925;-83
2021/09/29 14:39:11;;;;;;;;;;;15.20;95.00;;;;;;5030416;28;20027;-79
2021/09/29 14:41:53;;;;;;;;;;;15.00;94.70;;;;;;5033775;28;19929;-80
2021/09/29 14:44:23;;;;;;;;;;;14.80;94.60;;;;;;5025362;28;19929;-83
2021/09/29 14:46:50;;;;;;;;;;;14.90;94.30;;;;;;5035340;28;19925;-82
2021/09/29 14:49:18;;;;;;;;;;;15.00;94.40;;;;;;5026603;28;19951;-81
2021/09/29 14:51:44;;;;;;;;;;;15.20;95.10;;;;;;5028715;28;20348;-83
2021/09/29 14:54:11;;;;;;;;;;;15.40;95.00;;;;;;5028036;28;19926;-81
2021/09/29 14:56:38;;;;;;;;;;;15.50;95.00;;;;;;5029313;28;20018;-80
2021/09/29 14:59:06;;;;;;;;;;;15.40;95.10;;;;;;5031516;28;19935;-81
2021/09/29 15:01:34;;;;;;;;;;;15.20;95.30;;;;;;5035160;28;20366;-82
2021/09/29 15:04:02;;;;;;;;;;;15.00;95.70;;;;;;5029357;28;20430;-80
2021/09/29 15:06:30;;;;;;;;;;;14.90;96.20;;;;;;5029128;28;20011;-80
2021/09/29 15:08:57;;;;;;;;;;;14.90;97.00;;;;;;5033228;28;19929;-80
2021/09/29 15:11:24;;;;;;;;;;;15.00;97.00;;;;;;5030961;28;19932;-83
2021/09/29 15:14:00;;;;;;;;;;;15.00;96.90;;;;;;5036693;28;20467;-80
2021/09/29 15:16:30;;;;;;;;;;;14.80;96.40;;;;;;5033937;28;19929;-81
2021/09/29 15:19:06;;;;;;;;;;;14.70;96.40;;;;;;5028809;28;20006;-82
2021/09/29 15:46:10;;;;;;;;;;;15.10;99.90;;;;;;5033271;28;19932;-83
2021/09/29 15:49:11;;;;;;;;;;;15.00;95.10;;;;;;5017402;28;20013;-86
2021/09/29 15:51:45;;;;;;;;;;;14.90;95.40;;;;;;5022073;28;19934;-84
2021/09/29 15:54:18;;;;;;;;;;;15.10;95.60;;;;;;5019445;28;20439;-85
2021/09/29 15:56:54;;;;;;;;;;;15.10;95.30;;;;;;5018577;28;19933;-83
2021/09/29 16:02:13;;;;;;;;;;;15.20;95.70;;;;;;5015077;28;20085;-89
2021/09/29 16:05:04;;;;;;;;;;;15.10;95.40;;;;;;5022072;28;20012;-84
2021/09/29 16:07:41;;;;;;;;;;;14.90;95.80;;;;;;5011605;28;20004;-84
2021/09/29 16:10:28;;;;;;;;;;;14.70;96.40;;;;;;5022311;28;19929;-80
2021/09/29 16:13:19;;;;;;;;;;;14.40;97.00;;;;;;5013216;28;20020;-79
2021/09/29 16:18:44;;;;;;;;;;;14.00;98.40;;;;;;5021931;28;19968;-80
2021/09/29 16:32:15;;;;;;;;;;;11.90;99.90;;;;;;5032322;28;19932;-86
2021/09/29 16:34:47;;;;;;;;;;;12.10;99.90;;;;;;5024724;28;20406;-86
2021/09/29 16:37:16;;;;;;;;;;;12.40;99.90;;;;;;5026389;28;20524;-86
2021/09/29 16:39:46;;;;;;;;;;;12.60;99.90;;;;;;5006276;28;19968;-88
2021/09/29 16:42:18;;;;;;;;;;;12.70;99.90;;;;;;5007577;28;19968;-88
2021/09/29 16:44:44;;;;;;;;;;;12.70;99.90;;;;;;5003297;28;19925;-88
2021/09/29 16:47:12;;;;;;;;;;;12.60;99.90;;;;;;5014513;28;19925;-88
2021/09/29 16:49:40;;;;;;;;;;;12.50;99.90;;;;;;4993321;28;20025;-87
2021/09/29 16:52:24;;;;;;;;;;;12.50;99.90;;;;;;5002747;28;19925;-89
2021/09/29 16:54:52;;;;;;;;;;;12.40;99.90;;;;;;5009052;28;19987;-87
2021/09/29 16:57:30;;;;;;;;;;;12.30;99.90;;;;;;5002913;28;20292;-87
2021/09/29 17:00:06;;;;;;;;;;;12.20;99.90;;;;;;5000870;28;20337;-88
2021/09/29 17:02:36;;;;;;;;;;;12.20;99.90;;;;;;5010031;28;20019;-86
2021/09/29 17:05:06;;;;;;;;;;;12.10;99.90;;;;;;4997514;28;20778;-88
2021/09/29 17:07:33;;;;;;;;;;;12.10;99.90;;;;;;5007498;28;20024;-89
2021/09/29 17:10:00;;;;;;;;;;;12.00;99.90;;;;;;5006569;28;20341;-87
2021/09/29 17:12:39;;;;;;;;;;;12.00;99.90;;;;;;4993674;28;19968;-86
2021/09/29 17:15:06;;;;;;;;;;;11.90;99.90;;;;;;4991306;28;19934;-88
2021/09/29 17:17:40;;;;;;;;;;;11.90;99.90;;;;;;4997755;28;20447;-88
2021/09/29 17:22:58;;;;;;;;;;;11.90;99.90;;;;;;5006005;28;20404;-87
2021/09/29 17:25:28;;;;;;;;;;;11.90;99.90;;;;;;4996623;28;19980;-87
2021/09/29 17:27:57;;;;;;;;;;;11.80;99.90;;;;;;5003528;28;20056;-88
2021/09/29 17:30:49;;;;;;;;;;;11.80;99.90;;;;;;4993544;28;19945;-90
2021/09/29 17:33:24;;;;;;;;;;;11.70;99.90;;;;;;4992872;28;19930;-88
2021/09/29 17:36:08;;;;;;;;;;;11.60;99.90;;;;;;5001434;28;20020;-89
2021/09/29 17:39:03;;;;;;;;;;;11.50;99.90;;;;;;4998434;28;19925;-87
2021/09/29 17:55:22;;;;;;;;;;;11.10;99.90;;;;;;4996469;28;20332;-92
2021/09/29 17:57:50;;;;;;;;;;;11.10;99.90;;;;;;5000290;28;19973;-91
2021/09/29 18:00:23;;;;;;;;;;;11.10;99.90;;;;;;5000163;28;20274;-88
2021/09/29 18:02:59;;;;;;;;;;;11.00;99.90;;;;;;5000191;28;20399;-87
2021/09/29 18:05:38;;;;;;;;;;;11.00;99.90;;;;;;4997638;28;19941;-90
2021/09/29 18:08:08;;;;;;;;;;;10.90;99.90;;;;;;4994727;28;20024;-90
2021/09/29 18:10:36;;;;;;;;;;;10.90;99.90;;;;;;4992654;28;19933;-87
2021/09/29 18:13:10;;;;;;;;;;;10.80;99.90;;;;;;4998965;28;20282;-89
2021/09/29 18:15:52;;;;;;;;;;;10.70;99.90;;;;;;4994049;28;20339;-88
2021/09/29 18:18:29;;;;;;;;;;;10.80;99.90;;;;;;4999888;28;19948;-88
2021/09/29 18:21:16;;;;;;;;;;;10.70;99.90;;;;;;5005141;28;19992;-88
2021/09/29 18:23:45;;;;;;;;;;;10.70;99.90;;;;;;5000641;28;19926;-91
2021/09/29 18:26:25;;;;;;;;;;;10.70;99.90;;;;;;5004739;28;19926;-87
2021/09/29 18:29:01;;;;;;;;;;;10.70;99.90;;;;;;5013687;28;19934;-87
2021/09/29 18:31:42;;;;;;;;;;;10.70;99.90;;;;;;5000739;28;19940;-89
2021/09/29 18:34:20;;;;;;;;;;;10.60;99.90;;;;;;5007747;28;19926;-88
2021/09/29 18:36:49;;;;;;;;;;;10.60;99.90;;;;;;4999666;28;19926;-86
2021/09/29 18:39:22;;;;;;;;;;;10.60;99.90;;;;;;5002524;28;19933;-87
2021/09/29 18:42:01;;;;;;;;;;;10.60;99.90;;;;;;5005016;28;19932;-88
2021/09/29 18:44:38;;;;;;;;;;;10.60;99.90;;;;;;5000244;28;20009;-89
2021/09/29 18:47:33;;;;;;;;;;;10.60;99.90;;;;;;5003420;28;20369;-88